Sunnyside, Florida
Current Conditions -  °F | °C
As of 10:53 PM on Friday 19 Dec 2014 (Local Time) from KECP Reporting Station
Moderate Rain Moderate Rain  
Wind Chill: 51°   Ceiling: 8000
Heat Index: 51°   Visibility: 7mi
Dew Point: 48°   Wind: 0mph
Humidity: 89%   Direction: NA
Pressure: 30.13"   Gusts: NA
Location:  30.25°N, 85.95°W
Report Text: KECP 200353Z AUTO 00000KT 7SM RA OVC080 11/09 A3013 RMK AO2 SLP215 P0003 T01060089
Loading
Personal Weather Stations






























Interactive Weather Map New forecast layout! Learn more

10-Day Weather Forecast

Advertisements
Track Severe Weather on mobile